sensor_id;sensor_type;location;lat;lon;timestamp;temperature;humidity
69382;DHT22;56560;50.692;12.844;2023-02-28T00:01:11;-4.20;82.40
69382;DHT22;56560;50.692;12.844;2023-02-28T00:03:37;-4.10;82.20
69382;DHT22;56560;50.692;12.844;2023-02-28T00:06:04;-4.00;81.50
69382;DHT22;56560;50.692;12.844;2023-02-28T00:08:30;-4.00;81.70
69382;DHT22;56560;50.692;12.844;2023-02-28T00:10:56;-4.00;81.90
69382;DHT22;56560;50.692;12.844;2023-02-28T00:13:21;-3.80;81.60
69382;DHT22;56560;50.692;12.844;2023-02-28T00:15:47;-3.70;81.40
69382;DHT22;56560;50.692;12.844;2023-02-28T00:18:12;-3.70;81.20
69382;DHT22;56560;50.692;12.844;2023-02-28T00:20:38;-3.70;81.20
69382;DHT22;56560;50.692;12.844;2023-02-28T00:23:04;-3.60;81.20
69382;DHT22;56560;50.692;12.844;2023-02-28T00:25:30;-3.50;80.80
69382;DHT22;56560;50.692;12.844;2023-02-28T00:27:56;-3.50;80.50
69382;DHT22;56560;50.692;12.844;2023-02-28T00:30:22;-3.50;80.30
69382;DHT22;56560;50.692;12.844;2023-02-28T00:32:49;-3.50;80.10
69382;DHT22;56560;50.692;12.844;2023-02-28T00:35:15;-3.40;80.00
69382;DHT22;56560;50.692;12.844;2023-02-28T00:37:41;-3.40;80.10
69382;DHT22;56560;50.692;12.844;2023-02-28T00:40:08;-3.40;80.20
69382;DHT22;56560;50.692;12.844;2023-02-28T00:42:35;-3.30;80.00
69382;DHT22;56560;50.692;12.844;2023-02-28T00:45:01;-3.40;79.90
69382;DHT22;56560;50.692;12.844;2023-02-28T00:47:28;-3.40;80.10
69382;DHT22;56560;50.692;12.844;2023-02-28T00:49:54;-3.40;79.80
69382;DHT22;56560;50.692;12.844;2023-02-28T00:52:20;-3.30;80.00
69382;DHT22;56560;50.692;12.844;2023-02-28T00:54:45;-3.30;79.80
69382;DHT22;56560;50.692;12.844;2023-02-28T00:57:11;-3.30;79.90
69382;DHT22;56560;50.692;12.844;2023-02-28T00:59:36;-3.40;79.80
69382;DHT22;56560;50.692;12.844;2023-02-28T01:02:02;-3.40;80.30
69382;DHT22;56560;50.692;12.844;2023-02-28T01:04:28;-3.50;80.20
69382;DHT22;56560;50.692;12.844;2023-02-28T01:06:53;-3.50;80.30
69382;DHT22;56560;50.692;12.844;2023-02-28T01:09:19;-3.50;80.20
69382;DHT22;56560;50.692;12.844;2023-02-28T01:11:45;-3.50;80.30
69382;DHT22;56560;50.692;12.844;2023-02-28T01:14:15;-3.50;80.50
69382;DHT22;56560;50.692;12.844;2023-02-28T01:16:41;-3.50;80.70
69382;DHT22;56560;50.692;12.844;2023-02-28T01:19:07;-3.50;80.30
69382;DHT22;56560;50.692;12.844;2023-02-28T01:21:32;-3.60;80.70
69382;DHT22;56560;50.692;12.844;2023-02-28T01:24:00;-3.60;80.80
69382;DHT22;56560;50.692;12.844;2023-02-28T01:26:27;-3.50;80.80
69382;DHT22;56560;50.692;12.844;2023-02-28T01:28:53;-3.50;80.70
69382;DHT22;56560;50.692;12.844;2023-02-28T01:31:19;-3.50;80.50
69382;DHT22;56560;50.692;12.844;2023-02-28T01:33:46;-3.50;80.50
69382;DHT22;56560;50.692;12.844;2023-02-28T01:36:29;-3.50;80.30
69382;DHT22;56560;50.692;12.844;2023-02-28T01:38:55;-3.60;80.50
69382;DHT22;56560;50.692;12.844;2023-02-28T01:41:26;-3.60;80.40
69382;DHT22;56560;50.692;12.844;2023-02-28T01:46:19;-3.60;81.00
69382;DHT22;56560;50.692;12.844;2023-02-28T01:48:51;-3.60;81.10
69382;DHT22;56560;50.692;12.844;2023-02-28T01:51:42;-3.60;80.50
69382;DHT22;56560;50.692;12.844;2023-02-28T01:54:15;-3.60;80.70
69382;DHT22;56560;50.692;12.844;2023-02-28T01:56:46;-3.60;80.40
69382;DHT22;56560;50.692;12.844;2023-02-28T01:59:17;-3.80;81.00
69382;DHT22;56560;50.692;12.844;2023-02-28T02:01:46;-3.90;81.70
69382;DHT22;56560;50.692;12.844;2023-02-28T02:04:12;-3.90;81.40
69382;DHT22;56560;50.692;12.844;2023-02-28T02:06:40;-3.90;81.40
69382;DHT22;56560;50.692;12.844;2023-02-28T02:09:07;-3.90;81.40
69382;DHT22;56560;50.692;12.844;2023-02-28T02:11:34;-3.90;81.10
69382;DHT22;56560;50.692;12.844;2023-02-28T02:19:21;-4.00;81.40
69382;DHT22;56560;50.692;12.844;2023-02-28T02:36:30;-3.60;81.20
69382;DHT22;56560;50.692;12.844;2023-02-28T02:39:16;-3.50;81.00
69382;DHT22;56560;50.692;12.844;2023-02-28T02:41:53;-3.50;80.70
69382;DHT22;56560;50.692;12.844;2023-02-28T02:44:37;-3.50;81.00
69382;DHT22;56560;50.692;12.844;2023-02-28T02:47:14;-3.40;80.40
69382;DHT22;56560;50.692;12.844;2023-02-28T02:49:43;-3.40;80.40
69382;DHT22;56560;50.692;12.844;2023-02-28T02:52:12;-3.40;80.40
69382;DHT22;56560;50.692;12.844;2023-02-28T02:54:45;-3.50;80.30
69382;DHT22;56560;50.692;12.844;2023-02-28T02:57:22;-3.40;80.40
69382;DHT22;56560;50.692;12.844;2023-02-28T02:59:51;-3.40;80.40
69382;DHT22;56560;50.692;12.844;2023-02-28T03:02:21;-3.30;80.30
69382;DHT22;56560;50.692;12.844;2023-02-28T03:04:52;-3.30;80.70
69382;DHT22;56560;50.692;12.844;2023-02-28T03:07:19;-3.30;81.00
69382;DHT22;56560;50.692;12.844;2023-02-28T03:09:55;-3.20;81.00
69382;DHT22;56560;50.692;12.844;2023-02-28T03:12:23;-3.10;80.80
69382;DHT22;56560;50.692;12.844;2023-02-28T03:15:05;-3.10;80.90
69382;DHT22;56560;50.692;12.844;2023-02-28T03:18:08;-3.10;81.00
69382;DHT22;56560;50.692;12.844;2023-02-28T03:20:42;-3.10;80.80
69382;DHT22;56560;50.692;12.844;2023-02-28T03:23:38;-3.10;80.70
69382;DHT22;56560;50.692;12.844;2023-02-28T03:26:23;-3.10;80.40
69382;DHT22;56560;50.692;12.844;2023-02-28T03:29:18;-3.10;80.60
69382;DHT22;56560;50.692;12.844;2023-02-28T03:31:59;-3.10;80.60
69382;DHT22;56560;50.692;12.844;2023-02-28T03:37:01;-3.20;81.40
69382;DHT22;56560;50.692;12.844;2023-02-28T03:39:36;-3.20;81.30
69382;DHT22;56560;50.692;12.844;2023-02-28T03:42:12;-3.20;80.90
69382;DHT22;56560;50.692;12.844;2023-02-28T03:44:43;-3.30;80.90
69382;DHT22;56560;50.692;12.844;2023-02-28T03:50:21;-3.40;81.20
69382;DHT22;56560;50.692;12.844;2023-02-28T03:53:01;-3.40;81.30
69382;DHT22;56560;50.692;12.844;2023-02-28T03:55:34;-3.40;81.50
69382;DHT22;56560;50.692;12.844;2023-02-28T03:58:16;-3.50;81.40
69382;DHT22;56560;50.692;12.844;2023-02-28T04:00:47;-3.50;81.20
69382;DHT22;56560;50.692;12.844;2023-02-28T04:03:14;-3.50;81.60
69382;DHT22;56560;50.692;12.844;2023-02-28T04:05:54;-3.50;81.50
69382;DHT22;56560;50.692;12.844;2023-02-28T04:08:21;-3.50;81.90
69382;DHT22;56560;50.692;12.844;2023-02-28T04:10:54;-3.50;82.10
69382;DHT22;56560;50.692;12.844;2023-02-28T04:13:21;-3.50;82.30
69382;DHT22;56560;50.692;12.844;2023-02-28T04:15:47;-3.50;81.70
69382;DHT22;56560;50.692;12.844;2023-02-28T04:18:12;-3.50;81.90
69382;DHT22;56560;50.692;12.844;2023-02-28T04:20:38;-3.60;81.40
69382;DHT22;56560;50.692;12.844;2023-02-28T04:23:04;-3.60;81.70
69382;DHT22;56560;50.692;12.844;2023-02-28T04:25:29;-3.60;82.10
69382;DHT22;56560;50.692;12.844;2023-02-28T04:27:55;-3.70;82.00
69382;DHT22;56560;50.692;12.844;2023-02-28T04:30:20;-3.80;82.00
69382;DHT22;56560;50.692;12.844;2023-02-28T04:32:46;-3.80;82.20
69382;DHT22;56560;50.692;12.844;2023-02-28T04:35:12;-3.90;81.40
69382;DHT22;56560;50.692;12.844;2023-02-28T04:37:37;-4.00;81.40
69382;DHT22;56560;50.692;12.844;2023-02-28T04:40:03;-4.10;81.40
69382;DHT22;56560;50.692;12.844;2023-02-28T04:42:29;-4.20;82.00
69382;DHT22;56560;50.692;12.844;2023-02-28T04:45:04;-4.40;81.90
69382;DHT22;56560;50.692;12.844;2023-02-28T04:47:30;-4.60;81.60
69382;DHT22;56560;50.692;12.844;2023-02-28T04:49:56;-4.80;82.00
69382;DHT22;56560;50.692;12.844;2023-02-28T04:52:22;-4.90;82.20
69382;DHT22;56560;50.692;12.844;2023-02-28T04:54:47;-5.10;81.80
69382;DHT22;56560;50.692;12.844;2023-02-28T04:57:13;-5.30;81.60
69382;DHT22;56560;50.692;12.844;2023-02-28T04:59:38;-5.50;82.70
69382;DHT22;56560;50.692;12.844;2023-02-28T05:02:05;-5.70;82.90
69382;DHT22;56560;50.692;12.844;2023-02-28T05:04:33;-5.70;83.50
69382;DHT22;56560;50.692;12.844;2023-02-28T05:07:00;-5.80;83.80
69382;DHT22;56560;50.692;12.844;2023-02-28T05:09:25;-5.90;83.40
69382;DHT22;56560;50.692;12.844;2023-02-28T05:11:51;-6.10;83.80
69382;DHT22;56560;50.692;12.844;2023-02-28T05:14:17;-6.20;84.10
69382;DHT22;56560;50.692;12.844;2023-02-28T05:16:42;-6.20;84.30
69382;DHT22;56560;50.692;12.844;2023-02-28T05:19:08;-6.30;84.20
69382;DHT22;56560;50.692;12.844;2023-02-28T05:21:35;-6.40;84.30
69382;DHT22;56560;50.692;12.844;2023-02-28T05:24:06;-6.50;85.00
69382;DHT22;56560;50.692;12.844;2023-02-28T05:26:35;-6.50;85.10
69382;DHT22;56560;50.692;12.844;2023-02-28T05:29:02;-6.60;85.20
69382;DHT22;56560;50.692;12.844;2023-02-28T05:31:27;-6.70;84.60
69382;DHT22;56560;50.692;12.844;2023-02-28T05:33:53;-6.80;84.70
69382;DHT22;56560;50.692;12.844;2023-02-28T05:36:21;-6.80;84.20
69382;DHT22;56560;50.692;12.844;2023-02-28T05:38:48;-6.90;84.70
69382;DHT22;56560;50.692;12.844;2023-02-28T05:41:15;-7.00;84.40
69382;DHT22;56560;50.692;12.844;2023-02-28T05:43:40;-7.00;84.70
69382;DHT22;56560;50.692;12.844;2023-02-28T05:46:14;-7.10;84.10
69382;DHT22;56560;50.692;12.844;2023-02-28T05:48:41;-7.20;84.30
69382;DHT22;56560;50.692;12.844;2023-02-28T05:51:08;-7.30;84.30
69382;DHT22;56560;50.692;12.844;2023-02-28T05:53:36;-7.40;84.70
69382;DHT22;56560;50.692;12.844;2023-02-28T05:56:02;-7.40;84.50
69382;DHT22;56560;50.692;12.844;2023-02-28T05:58:28;-7.40;84.90
69382;DHT22;56560;50.692;12.844;2023-02-28T06:00:59;-7.40;85.10
69382;DHT22;56560;50.692;12.844;2023-02-28T06:03:25;-7.40;84.50
69382;DHT22;56560;50.692;12.844;2023-02-28T06:05:51;-7.50;84.30
69382;DHT22;56560;50.692;12.844;2023-02-28T06:08:17;-7.50;84.30
69382;DHT22;56560;50.692;12.844;2023-02-28T06:10:43;-7.50;84.00
69382;DHT22;56560;50.692;12.844;2023-02-28T06:13:10;-7.50;84.20
69382;DHT22;56560;50.692;12.844;2023-02-28T06:15:37;-7.50;83.50
69382;DHT22;56560;50.692;12.844;2023-02-28T06:18:03;-7.50;83.10
69382;DHT22;56560;50.692;12.844;2023-02-28T06:20:28;-7.40;83.50
69382;DHT22;56560;50.692;12.844;2023-02-28T06:22:58;-7.20;86.60
69382;DHT22;56560;50.692;12.844;2023-02-28T06:25:27;-7.10;82.70
69382;DHT22;56560;50.692;12.844;2023-02-28T06:27:54;-7.10;81.30
69382;DHT22;56560;50.692;12.844;2023-02-28T06:30:20;-7.00;80.80
69382;DHT22;56560;50.692;12.844;2023-02-28T06:32:50;-6.60;82.50
69382;DHT22;56560;50.692;12.844;2023-02-28T06:35:17;-6.40;78.60
69382;DHT22;56560;50.692;12.844;2023-02-28T06:37:43;-6.60;78.00
69382;DHT22;56560;50.692;12.844;2023-02-28T06:40:10;-6.50;81.20
69382;DHT22;56560;50.692;12.844;2023-02-28T06:42:36;-6.40;78.80
69382;DHT22;56560;50.692;12.844;2023-02-28T06:45:02;-6.30;78.00
69382;DHT22;56560;50.692;12.844;2023-02-28T06:47:35;-6.20;77.70
69382;DHT22;56560;50.692;12.844;2023-02-28T06:50:01;-6.20;77.20
69382;DHT22;56560;50.692;12.844;2023-02-28T06:52:27;-6.20;77.60
69382;DHT22;56560;50.692;12.844;2023-02-28T06:54:52;-6.10;77.70
69382;DHT22;56560;50.692;12.844;2023-02-28T06:57:29;-6.00;77.70
69382;DHT22;56560;50.692;12.844;2023-02-28T07:03:12;-5.80;77.40
69382;DHT22;56560;50.692;12.844;2023-02-28T07:05:39;-5.70;76.40
69382;DHT22;56560;50.692;12.844;2023-02-28T07:08:05;-5.60;76.10
69382;DHT22;56560;50.692;12.844;2023-02-28T07:10:32;-5.50;75.20
69382;DHT22;56560;50.692;12.844;2023-02-28T07:12:58;-5.50;75.80
69382;DHT22;56560;50.692;12.844;2023-02-28T07:15:24;-5.30;75.40
69382;DHT22;56560;50.692;12.844;2023-02-28T07:17:51;-5.20;74.70
69382;DHT22;56560;50.692;12.844;2023-02-28T07:20:17;-5.10;75.10
69382;DHT22;56560;50.692;12.844;2023-02-28T07:22:43;-4.90;75.20
69382;DHT22;56560;50.692;12.844;2023-02-28T07:25:09;-4.80;74.40
69382;DHT22;56560;50.692;12.844;2023-02-28T07:27:34;-4.60;75.20
69382;DHT22;56560;50.692;12.844;2023-02-28T07:30:00;-4.50;74.20
69382;DHT22;56560;50.692;12.844;2023-02-28T07:32:27;-4.30;73.80
69382;DHT22;56560;50.692;12.844;2023-02-28T07:34:53;-4.10;73.50
69382;DHT22;56560;50.692;12.844;2023-02-28T07:37:19;-4.00;73.70
69382;DHT22;56560;50.692;12.844;2023-02-28T07:39:45;-3.80;73.30
69382;DHT22;56560;50.692;12.844;2023-02-28T07:42:11;-3.50;72.50
69382;DHT22;56560;50.692;12.844;2023-02-28T07:44:38;-3.30;72.00
69382;DHT22;56560;50.692;12.844;2023-02-28T07:47:09;-3.20;71.60
69382;DHT22;56560;50.692;12.844;2023-02-28T07:49:37;-2.90;71.60
69382;DHT22;56560;50.692;12.844;2023-02-28T07:52:06;-2.80;71.10
69382;DHT22;56560;50.692;12.844;2023-02-28T07:54:33;-2.60;70.70
69382;DHT22;56560;50.692;12.844;2023-02-28T07:56:59;-2.60;69.70
69382;DHT22;56560;50.692;12.844;2023-02-28T07:59:24;-2.40;70.20
69382;DHT22;56560;50.692;12.844;2023-02-28T08:01:50;-2.20;69.70
69382;DHT22;56560;50.692;12.844;2023-02-28T08:04:17;-2.00;70.30
69382;DHT22;56560;50.692;12.844;2023-02-28T08:06:42;-1.80;70.30
69382;DHT22;56560;50.692;12.844;2023-02-28T08:09:08;-1.50;70.30
69382;DHT22;56560;50.692;12.844;2023-02-28T08:11:34;-1.30;70.30
69382;DHT22;56560;50.692;12.844;2023-02-28T08:14:03;-1.20;69.80
69382;DHT22;56560;50.692;12.844;2023-02-28T08:16:28;-0.90;69.20
69382;DHT22;56560;50.692;12.844;2023-02-28T08:18:54;-0.70;68.80
69382;DHT22;56560;50.692;12.844;2023-02-28T08:21:20;-0.50;68.50
69382;DHT22;56560;50.692;12.844;2023-02-28T08:23:47;-0.20;67.20
69382;DHT22;56560;50.692;12.844;2023-02-28T08:26:15;-0.10;66.90
69382;DHT22;56560;50.692;12.844;2023-02-28T08:28:41;-0.20;65.10
69382;DHT22;56560;50.692;12.844;2023-02-28T08:31:10;-0.10;65.70
69382;DHT22;56560;50.692;12.844;2023-02-28T08:33:36;0.00;65.20
69382;DHT22;56560;50.692;12.844;2023-02-28T08:36:02;0.10;63.90
69382;DHT22;56560;50.692;12.844;2023-02-28T08:38:27;0.30;64.10
69382;DHT22;56560;50.692;12.844;2023-02-28T08:41:01;0.40;63.60
69382;DHT22;56560;50.692;12.844;2023-02-28T08:43:28;0.60;63.00
69382;DHT22;56560;50.692;12.844;2023-02-28T08:45:55;0.80;61.20
69382;DHT22;56560;50.692;12.844;2023-02-28T08:48:23;0.90;60.90
69382;DHT22;56560;50.692;12.844;2023-02-28T08:51:03;1.00;59.20
69382;DHT22;56560;50.692;12.844;2023-02-28T08:53:33;1.00;59.50
69382;DHT22;56560;50.692;12.844;2023-02-28T08:56:01;1.00;58.20
69382;DHT22;56560;50.692;12.844;2023-02-28T08:58:27;1.00;58.00
69382;DHT22;56560;50.692;12.844;2023-02-28T09:00:53;0.90;57.80
69382;DHT22;56560;50.692;12.844;2023-02-28T09:03:20;0.80;57.90
69382;DHT22;56560;50.692;12.844;2023-02-28T09:06:00;0.90;59.20
69382;DHT22;56560;50.692;12.844;2023-02-28T09:08:28;1.00;57.40
69382;DHT22;56560;50.692;12.844;2023-02-28T09:10:53;0.90;58.00
69382;DHT22;56560;50.692;12.844;2023-02-28T09:13:22;0.90;58.60
69382;DHT22;56560;50.692;12.844;2023-02-28T09:15:48;1.00;58.80
69382;DHT22;56560;50.692;12.844;2023-02-28T09:18:14;0.80;57.10
69382;DHT22;56560;50.692;12.844;2023-02-28T09:20:41;0.70;57.70
69382;DHT22;56560;50.692;12.844;2023-02-28T09:23:08;0.70;58.00
69382;DHT22;56560;50.692;12.844;2023-02-28T09:25:34;0.70;58.10
69382;DHT22;56560;50.692;12.844;2023-02-28T09:28:00;0.80;58.30
69382;DHT22;56560;50.692;12.844;2023-02-28T09:30:26;0.70;58.00
69382;DHT22;56560;50.692;12.844;2023-02-28T09:32:52;0.70;58.30
69382;DHT22;56560;50.692;12.844;2023-02-28T09:35:20;0.90;58.30
69382;DHT22;56560;50.692;12.844;2023-02-28T09:37:47;1.00;58.00
69382;DHT22;56560;50.692;12.844;2023-02-28T09:40:13;1.00;57.20
69382;DHT22;56560;50.692;12.844;2023-02-28T09:42:40;0.90;57.00
69382;DHT22;56560;50.692;12.844;2023-02-28T09:45:28;1.10;57.30
69382;DHT22;56560;50.692;12.844;2023-02-28T09:47:59;1.40;56.80
69382;DHT22;56560;50.692;12.844;2023-02-28T09:50:40;1.40;57.30
69382;DHT22;56560;50.692;12.844;2023-02-28T09:53:26;1.60;55.90
69382;DHT22;56560;50.692;12.844;2023-02-28T09:56:08;1.60;56.40
69382;DHT22;56560;50.692;12.844;2023-02-28T09:59:29;1.60;56.30
69382;DHT22;56560;50.692;12.844;2023-02-28T10:09:57;2.10;56.40
69382;DHT22;56560;50.692;12.844;2023-02-28T10:12:24;2.20;54.40
69382;DHT22;56560;50.692;12.844;2023-02-28T10:14:52;2.30;55.30
69382;DHT22;56560;50.692;12.844;2023-02-28T10:17:36;2.40;55.50
69382;DHT22;56560;50.692;12.844;2023-02-28T10:20:10;2.70;51.40
69382;DHT22;56560;50.692;12.844;2023-02-28T10:23:32;2.70;54.00
69382;DHT22;56560;50.692;12.844;2023-02-28T10:25:34;2.80;53.90
69382;DHT22;56560;50.692;12.844;2023-02-28T10:28:11;2.90;52.70
69382;DHT22;56560;50.692;12.844;2023-02-28T10:30:39;3.10;52.80
69382;DHT22;56560;50.692;12.844;2023-02-28T10:33:08;3.40;51.80
69382;DHT22;56560;50.692;12.844;2023-02-28T10:35:40;3.40;50.50
69382;DHT22;56560;50.692;12.844;2023-02-28T10:38:14;3.20;50.70
69382;DHT22;56560;50.692;12.844;2023-02-28T10:40:40;3.20;51.50
69382;DHT22;56560;50.692;12.844;2023-02-28T10:43:19;3.00;51.00
69382;DHT22;56560;50.692;12.844;2023-02-28T10:56:01;3.00;50.30
69382;DHT22;56560;50.692;12.844;2023-02-28T10:58:30;3.00;50.50
69382;DHT22;56560;50.692;12.844;2023-02-28T11:00:57;3.10;50.40
69382;DHT22;56560;50.692;12.844;2023-02-28T11:03:29;3.40;50.70
69382;DHT22;56560;50.692;12.844;2023-02-28T11:05:56;3.60;50.50
69382;DHT22;56560;50.692;12.844;2023-02-28T11:08:22;3.80;50.10
69382;DHT22;56560;50.692;12.844;2023-02-28T11:10:59;3.80;49.70
69382;DHT22;56560;50.692;12.844;2023-02-28T11:13:33;3.90;50.10
69382;DHT22;56560;50.692;12.844;2023-02-28T11:16:03;4.10;49.50
69382;DHT22;56560;50.692;12.844;2023-02-28T11:21:08;4.10;50.30
69382;DHT22;56560;50.692;12.844;2023-02-28T11:23:36;4.50;50.00
69382;DHT22;56560;50.692;12.844;2023-02-28T11:26:05;4.70;49.50
69382;DHT22;56560;50.692;12.844;2023-02-28T11:28:42;4.90;48.60
69382;DHT22;56560;50.692;12.844;2023-02-28T11:31:17;4.90;48.20
69382;DHT22;56560;50.692;12.844;2023-02-28T11:33:50;4.60;48.60
69382;DHT22;56560;50.692;12.844;2023-02-28T11:36:25;4.40;48.50
69382;DHT22;56560;50.692;12.844;2023-02-28T11:38:53;4.50;47.90
69382;DHT22;56560;50.692;12.844;2023-02-28T11:52:45;6.20;45.70
69382;DHT22;56560;50.692;12.844;2023-02-28T11:55:35;7.20;45.70
69382;DHT22;56560;50.692;12.844;2023-02-28T12:20:08;10.50;39.30
69382;DHT22;56560;50.692;12.844;2023-02-28T12:25:43;10.50;38.00
69382;DHT22;56560;50.692;12.844;2023-02-28T12:28:16;10.40;39.30
69382;DHT22;56560;50.692;12.844;2023-02-28T12:30:56;10.60;38.70
69382;DHT22;56560;50.692;12.844;2023-02-28T12:33:28;10.90;37.90
69382;DHT22;56560;50.692;12.844;2023-02-28T12:35:58;10.80;37.60
69382;DHT22;56560;50.692;12.844;2023-02-28T12:38:45;10.90;38.20
69382;DHT22;56560;50.692;12.844;2023-02-28T12:41:17;11.00;38.00
69382;DHT22;56560;50.692;12.844;2023-02-28T12:43:47;11.40;37.70
69382;DHT22;56560;50.692;12.844;2023-02-28T12:46:34;11.20;36.70
69382;DHT22;56560;50.692;12.844;2023-02-28T12:49:09;11.10;38.40
69382;DHT22;56560;50.692;12.844;2023-02-28T12:51:36;11.60;37.20
69382;DHT22;56560;50.692;12.844;2023-02-28T12:54:10;11.30;37.20
69382;DHT22;56560;50.692;12.844;2023-02-28T12:59:13;11.90;37.60
69382;DHT22;56560;50.692;12.844;2023-02-28T13:09:58;12.50;35.00
69382;DHT22;56560;50.692;12.844;2023-02-28T13:12:25;11.80;36.40
69382;DHT22;56560;50.692;12.844;2023-02-28T13:15:06;11.00;37.40
69382;DHT22;56560;50.692;12.844;2023-02-28T13:17:39;10.60;38.20
69382;DHT22;56560;50.692;12.844;2023-02-28T13:20:15;10.60;38.70
69382;DHT22;56560;50.692;12.844;2023-02-28T13:22:49;11.40;37.80
69382;DHT22;56560;50.692;12.844;2023-02-28T13:28:00;12.70;36.00
69382;DHT22;56560;50.692;12.844;2023-02-28T13:33:33;11.40;37.30
69382;DHT22;56560;50.692;12.844;2023-02-28T13:38:53;11.00;37.30
69382;DHT22;56560;50.692;12.844;2023-02-28T13:44:19;10.30;38.40
69382;DHT22;56560;50.692;12.844;2023-02-28T13:51:53;11.20;38.20
69382;DHT22;56560;50.692;12.844;2023-02-28T14:05:22;10.50;39.70
69382;DHT22;56560;50.692;12.844;2023-02-28T14:07:59;10.60;38.70
69382;DHT22;56560;50.692;12.844;2023-02-28T14:20:48;10.10;40.40
69382;DHT22;56560;50.692;12.844;2023-02-28T14:23:43;10.30;38.60
69382;DHT22;56560;50.692;12.844;2023-02-28T14:26:44;10.80;38.70
69382;DHT22;56560;50.692;12.844;2023-02-28T14:29:41;10.80;38.10
69382;DHT22;56560;50.692;12.844;2023-02-28T14:32:30;11.10;38.20
69382;DHT22;56560;50.692;12.844;2023-02-28T14:35:43;11.70;37.70
69382;DHT22;56560;50.692;12.844;2023-02-28T14:37:46;12.00;36.00
69382;DHT22;56560;50.692;12.844;2023-02-28T14:40:30;11.90;37.00
69382;DHT22;56560;50.692;12.844;2023-02-28T14:43:00;12.30;35.80
69382;DHT22;56560;50.692;12.844;2023-02-28T14:45:29;12.00;35.90
69382;DHT22;56560;50.692;12.844;2023-02-28T14:47:57;11.60;36.30
69382;DHT22;56560;50.692;12.844;2023-02-28T14:50:29;11.00;37.20
69382;DHT22;56560;50.692;12.844;2023-02-28T14:52:56;10.90;36.90
69382;DHT22;56560;50.692;12.844;2023-02-28T14:55:29;10.80;38.10
69382;DHT22;56560;50.692;12.844;2023-02-28T14:58:00;10.90;37.60
69382;DHT22;56560;50.692;12.844;2023-02-28T15:00:29;11.20;37.40
69382;DHT22;56560;50.692;12.844;2023-02-28T15:02:56;11.60;37.00
69382;DHT22;56560;50.692;12.844;2023-02-28T15:05:28;11.70;35.90
69382;DHT22;56560;50.692;12.844;2023-02-28T15:08:15;12.00;35.80
69382;DHT22;56560;50.692;12.844;2023-02-28T15:10:54;12.10;35.20
69382;DHT22;56560;50.692;12.844;2023-02-28T15:13:21;11.90;35.30
69382;DHT22;56560;50.692;12.844;2023-02-28T15:16:00;11.80;35.60
69382;DHT22;56560;50.692;12.844;2023-02-28T15:18:48;11.70;35.80
69382;DHT22;56560;50.692;12.844;2023-02-28T15:21:36;11.20;36.40
69382;DHT22;56560;50.692;12.844;2023-02-28T15:24:38;10.00;38.10
69382;DHT22;56560;50.692;12.844;2023-02-28T15:27:35;8.20;40.40
69382;DHT22;56560;50.692;12.844;2023-02-28T15:30:08;6.80;43.70
69382;DHT22;56560;50.692;12.844;2023-02-28T15:32:37;5.90;45.90
69382;DHT22;56560;50.692;12.844;2023-02-28T15:38:43;4.60;49.40
69382;DHT22;56560;50.692;12.844;2023-02-28T15:41:02;4.20;50.40
69382;DHT22;56560;50.692;12.844;2023-02-28T15:43:37;3.80;51.40
69382;DHT22;56560;50.692;12.844;2023-02-28T15:46:06;3.60;52.40
69382;DHT22;56560;50.692;12.844;2023-02-28T15:48:34;3.60;52.90
69382;DHT22;56560;50.692;12.844;2023-02-28T15:56:35;3.20;53.80
69382;DHT22;56560;50.692;12.844;2023-02-28T15:59:06;3.00;54.80
69382;DHT22;56560;50.692;12.844;2023-02-28T16:01:37;2.80;55.10
69382;DHT22;56560;50.692;12.844;2023-02-28T16:04:14;2.60;55.70
69382;DHT22;56560;50.692;12.844;2023-02-28T16:09:26;2.20;57.50
69382;DHT22;56560;50.692;12.844;2023-02-28T16:11:54;2.00;57.70
69382;DHT22;56560;50.692;12.844;2023-02-28T16:14:24;1.80;58.40
69382;DHT22;56560;50.692;12.844;2023-02-28T16:16:53;1.70;58.60
69382;DHT22;56560;50.692;12.844;2023-02-28T16:19:19;1.50;59.50
69382;DHT22;56560;50.692;12.844;2023-02-28T16:21:46;1.40;60.00
69382;DHT22;56560;50.692;12.844;2023-02-28T16:24:12;1.30;60.50
69382;DHT22;56560;50.692;12.844;2023-02-28T16:26:45;1.20;60.80
69382;DHT22;56560;50.692;12.844;2023-02-28T16:29:17;1.10;60.40
69382;DHT22;56560;50.692;12.844;2023-02-28T16:31:44;1.00;60.40
69382;DHT22;56560;50.692;12.844;2023-02-28T16:34:10;0.90;61.40
69382;DHT22;56560;50.692;12.844;2023-02-28T16:36:35;0.70;62.50
69382;DHT22;56560;50.692;12.844;2023-02-28T16:39:01;0.60;62.30
69382;DHT22;56560;50.692;12.844;2023-02-28T16:41:28;0.40;62.90
69382;DHT22;56560;50.692;12.844;2023-02-28T16:43:55;0.30;63.80
69382;DHT22;56560;50.692;12.844;2023-02-28T16:46:30;0.10;65.00
69382;DHT22;56560;50.692;12.844;2023-02-28T16:48:56;0.00;64.40
69382;DHT22;56560;50.692;12.844;2023-02-28T16:51:22;-0.10;66.00
69382;DHT22;56560;50.692;12.844;2023-02-28T16:53:47;-0.30;66.50
69382;DHT22;56560;50.692;12.844;2023-02-28T16:56:21;-0.40;66.80
69382;DHT22;56560;50.692;12.844;2023-02-28T16:58:49;-0.50;67.40
69382;DHT22;56560;50.692;12.844;2023-02-28T17:01:18;-0.60;67.40
69382;DHT22;56560;50.692;12.844;2023-02-28T17:03:48;-0.60;67.90
69382;DHT22;56560;50.692;12.844;2023-02-28T17:06:32;-0.70;68.20
69382;DHT22;56560;50.692;12.844;2023-02-28T17:08:58;-0.80;68.30
69382;DHT22;56560;50.692;12.844;2023-02-28T17:11:30;-0.90;69.00
69382;DHT22;56560;50.692;12.844;2023-02-28T17:13:55;-1.00;69.00
69382;DHT22;56560;50.692;12.844;2023-02-28T17:16:33;-1.10;70.80
69382;DHT22;56560;50.692;12.844;2023-02-28T17:19:04;-1.30;71.00
69382;DHT22;56560;50.692;12.844;2023-02-28T17:21:32;-1.40;71.70
69382;DHT22;56560;50.692;12.844;2023-02-28T17:24:00;-1.50;72.20
69382;DHT22;56560;50.692;12.844;2023-02-28T17:26:26;-1.50;72.20
69382;DHT22;56560;50.692;12.844;2023-02-28T17:28:54;-1.50;72.50
69382;DHT22;56560;50.692;12.844;2023-02-28T17:31:27;-1.50;72.60
69382;DHT22;56560;50.692;12.844;2023-02-28T17:33:59;-1.60;73.00
69382;DHT22;56560;50.692;12.844;2023-02-28T17:36:28;-1.60;73.00
69382;DHT22;56560;50.692;12.844;2023-02-28T17:38:54;-1.60;73.30
69382;DHT22;56560;50.692;12.844;2023-02-28T17:41:23;-1.60;73.60
69382;DHT22;56560;50.692;12.844;2023-02-28T17:43:52;-1.70;73.40
69382;DHT22;56560;50.692;12.844;2023-02-28T17:46:20;-1.80;73.60
69382;DHT22;56560;50.692;12.844;2023-02-28T17:48:52;-1.80;73.90
69382;DHT22;56560;50.692;12.844;2023-02-28T17:51:19;-1.90;74.20
69382;DHT22;56560;50.692;12.844;2023-02-28T17:53:45;-2.00;74.70
69382;DHT22;56560;50.692;12.844;2023-02-28T17:56:22;-2.10;75.20
69382;DHT22;56560;50.692;12.844;2023-02-28T17:58:48;-2.10;75.30
69382;DHT22;56560;50.692;12.844;2023-02-28T18:01:15;-2.20;75.40
69382;DHT22;56560;50.692;12.844;2023-02-28T18:03:41;-2.30;75.60
69382;DHT22;56560;50.692;12.844;2023-02-28T18:06:09;-2.30;75.80
69382;DHT22;56560;50.692;12.844;2023-02-28T18:08:38;-2.40;76.90